Time;durP1;ratioP1;P1;durP2;ratioP2;P2;SDS_P1;SDS_P2;PMS_P1;PMS_P2;Temp;Humidity;BMP_temperature;BMP_pressure;BME280_temperature;BME280_humidity;BME280_pressure;Samples;Min_cycle;Max_cycle;Signal;HPM_P1;HPM_P2
2021/06/20 07:38:04;;;;;;;9.50;2.75;;;20.50;99.90;;;;;;12114794;27;20746;-56
2021/06/20 07:43:52;;;;;;;7.43;2.90;;;20.90;99.90;;;;;;12057122;28;20079;-53
2021/06/20 07:49:38;;;;;;;5.50;2.33;;;21.80;99.90;;;;;;12034364;28;20044;-52
2021/06/20 07:55:27;;;;;;;7.50;2.45;;;22.30;99.90;;;;;;12058444;27;20052;-66
2021/06/20 09:46:55;;;;;;;3.50;1.50;;;22.60;99.90;;;;;;12133713;27;20397;-60
2021/06/20 09:52:41;;;;;;;3.75;1.75;;;23.10;99.90;;;;;;12140772;27;20542;-62
2021/06/20 09:58:28;;;;;;;3.17;1.70;;;23.70;99.90;;;;;;12140800;27;20565;-59
2021/06/20 10:04:17;;;;;;;7.13;1.52;;;24.10;99.90;;;;;;12123444;27;20063;-58
2021/06/20 10:10:07;;;;;;;4.07;1.75;;;24.10;99.90;;;;;;12121499;27;20043;-60
2021/06/20 10:15:55;;;;;;;4.40;1.40;;;24.20;99.90;;;;;;12123908;27;20288;-60
2021/06/20 10:21:45;;;;;;;4.93;1.55;;;24.30;99.90;;;;;;12134862;27;20047;-60
2021/06/20 10:27:36;;;;;;;2.35;1.33;;;24.60;99.90;;;;;;12141285;27;20051;-60
2021/06/20 10:33:26;;;;;;;7.00;1.60;;;24.80;99.90;;;;;;12158807;27;20472;-59
2021/06/20 10:39:15;;;;;;;7.65;1.80;;;25.00;99.90;;;;;;12161583;27;20047;-59
2021/06/20 10:45:02;;;;;;;4.93;2.22;;;25.00;99.90;;;;;;12154006;27;20055;-59
2021/06/20 10:50:51;;;;;;;3.22;1.60;;;25.50;99.90;;;;;;12158505;27;20043;-59
2021/06/20 10:56:39;;;;;;;6.97;1.40;;;25.80;99.90;;;;;;12136510;27;20355;-59
2021/06/20 11:02:33;;;;;;;3.15;1.42;;;26.00;97.90;;;;;;12080798;27;20055;-60
2021/06/20 11:08:28;;;;;;;4.45;1.45;;;26.20;96.10;;;;;;12126499;27;20039;-60
2021/06/20 11:14:17;;;;;;;2.75;1.35;;;26.30;96.90;;;;;;12124973;27;20047;-59
2021/06/20 11:20:14;;;;;;;3.85;1.70;;;26.50;95.30;;;;;;12124860;27;20456;-60
2021/06/20 11:26:03;;;;;;;6.00;2.28;;;26.70;94.60;;;;;;12118800;27;20077;-60
2021/06/20 11:31:53;;;;;;;5.53;1.52;;;26.90;93.10;;;;;;12125378;27;20099;-60
2021/06/20 11:37:44;;;;;;;2.28;1.88;;;26.80;93.30;;;;;;12124814;27;20945;-60
2021/06/20 11:43:31;;;;;;;3.75;2.60;;;26.50;93.00;;;;;;12120493;27;20073;-60
2021/06/20 11:49:20;;;;;;;5.43;2.47;;;26.30;94.00;;;;;;12124600;27;20040;-60
2021/06/20 11:55:15;;;;;;;7.22;2.92;;;26.20;94.80;;;;;;12119401;27;20636;-60
2021/06/20 12:01:02;;;;;;;3.38;2.20;;;26.20;94.20;;;;;;12120792;27;20048;-60
2021/06/20 12:06:51;;;;;;;7.10;2.65;;;26.40;92.30;;;;;;12120813;27;20059;-61
2021/06/20 12:12:39;;;;;;;10.48;1.98;;;26.70;92.90;;;;;;12119269;27;20108;-60
2021/06/20 12:18:28;;;;;;;3.05;1.73;;;27.00;93.70;;;;;;12123539;27;20052;-59
2021/06/20 12:24:17;;;;;;;2.38;1.70;;;27.00;92.30;;;;;;12124026;28;20532;-60
2021/06/20 12:30:14;;;;;;;5.03;1.98;;;26.80;92.60;;;;;;12121683;27;20048;-59
2021/06/20 12:36:04;;;;;;;2.63;2.00;;;26.80;93.00;;;;;;12119908;27;20047;-60
2021/06/20 12:42:03;;;;;;;4.70;1.90;;;27.20;93.20;;;;;;12115878;27;20138;-59
2021/06/20 12:47:52;;;;;;;10.07;1.90;;;27.30;90.30;;;;;;12103020;27;20434;-60
2021/06/20 12:53:40;;;;;;;3.10;1.80;;;27.50;92.40;;;;;;12151858;27;20131;-60
2021/06/20 12:59:37;;;;;;;7.57;1.70;;;27.60;90.60;;;;;;12150927;27;20053;-60
2021/06/20 13:05:37;;;;;;;3.30;1.70;;;27.60;91.40;;;;;;12153009;27;20042;-60
2021/06/20 13:11:23;;;;;;;3.28;1.98;;;27.60;90.40;;;;;;12152661;27;20050;-59
2021/06/20 13:17:12;;;;;;;4.15;1.67;;;27.60;90.40;;;;;;12152695;27;20048;-60
2021/06/20 13:23:02;;;;;;;4.38;2.00;;;27.70;89.90;;;;;;12143469;27;20043;-60
2021/06/20 13:28:48;;;;;;;4.80;1.98;;;27.60;90.50;;;;;;12110843;27;20044;-60
2021/06/20 13:34:39;;;;;;;3.53;2.08;;;27.70;90.20;;;;;;12099137;27;20047;-57
2021/06/20 13:40:28;;;;;;;8.02;2.10;;;27.70;90.40;;;;;;12099782;27;20051;-59
2021/06/20 13:46:16;;;;;;;3.20;1.65;;;27.80;90.50;;;;;;12098403;27;20044;-61
2021/06/20 13:52:05;;;;;;;2.50;1.67;;;27.80;90.10;;;;;;12150650;27;20059;-60
2021/06/20 13:57:52;;;;;;;2.55;1.92;;;27.80;90.10;;;;;;12153317;27;20043;-60
2021/06/20 14:03:39;;;;;;;6.05;1.63;;;27.80;90.30;;;;;;12152720;27;20046;-60
2021/06/20 14:09:27;;;;;;;4.47;1.80;;;27.70;88.00;;;;;;12152691;27;20480;-60
2021/06/20 14:15:15;;;;;;;4.28;1.95;;;27.70;89.30;;;;;;12150579;27;20093;-60
2021/06/20 14:21:02;;;;;;;4.80;2.20;;;27.60;90.50;;;;;;12153412;27;20414;-60
2021/06/20 14:26:51;;;;;;;5.15;2.00;;;27.40;90.10;;;;;;12126815;27;20274;-60
2021/06/20 14:32:38;;;;;;;2.03;1.70;;;27.30;90.60;;;;;;12102592;27;20108;-60
2021/06/20 14:38:25;;;;;;;2.38;1.65;;;27.40;90.10;;;;;;12095025;27;20063;-60
2021/06/20 14:44:13;;;;;;;10.30;1.85;;;27.40;88.40;;;;;;12105060;27;20039;-60
2021/06/20 14:50:00;;;;;;;4.03;2.00;;;27.50;88.60;;;;;;12143806;27;20130;-61
2021/06/20 14:55:47;;;;;;;2.17;1.58;;;27.60;87.60;;;;;;12150628;27;20062;-60
2021/06/20 15:01:35;;;;;;;3.05;1.60;;;27.90;84.80;;;;;;12161643;27;20419;-60
2021/06/20 15:07:22;;;;;;;3.92;1.60;;;28.00;84.10;;;;;;12161823;27;20059;-58
2021/06/20 15:13:09;;;;;;;1.92;1.55;;;27.90;83.00;;;;;;12162267;27;20553;-61
2021/06/20 15:18:58;;;;;;;2.00;1.73;;;27.90;82.90;;;;;;12161270;27;20042;-59
2021/06/20 15:24:45;;;;;;;2.58;1.60;;;28.10;83.40;;;;;;12156487;27;20435;-60
2021/06/20 15:30:32;;;;;;;3.15;1.70;;;28.50;83.20;;;;;;12105098;27;20055;-60
2021/06/20 15:36:21;;;;;;;2.40;1.92;;;28.90;79.40;;;;;;12100742;27;20051;-60
2021/06/20 15:42:08;;;;;;;5.00;1.98;;;28.70;81.00;;;;;;12105958;27;20075;-59
2021/06/20 15:54:39;;;;;;;3.05;1.95;;;28.20;81.00;;;;;;12159438;27;21048;-60
2021/06/20 16:00:26;;;;;;;1.73;1.63;;;28.20;81.80;;;;;;12158952;27;20050;-59
2021/06/20 16:06:13;;;;;;;3.42;2.20;;;28.10;82.20;;;;;;12160701;27;20081;-62
2021/06/20 16:12:01;;;;;;;6.65;2.20;;;28.00;82.30;;;;;;12156515;27;20119;-61
2021/06/20 16:17:48;;;;;;;4.28;2.10;;;28.00;82.70;;;;;;12159283;27;20051;-60
2021/06/20 16:23:35;;;;;;;4.05;2.38;;;28.00;85.30;;;;;;12158391;27;20533;-61
2021/06/20 16:29:23;;;;;;;3.20;2.03;;;28.10;85.00;;;;;;12113185;27;20073;-61
2021/06/20 16:35:13;;;;;;;4.13;1.90;;;28.20;84.60;;;;;;12080711;27;20051;-62
2021/06/20 16:40:59;;;;;;;6.07;2.20;;;28.50;85.30;;;;;;12151064;27;20051;-62
2021/06/20 16:46:48;;;;;;;2.45;2.20;;;29.50;83.20;;;;;;12157074;27;20039;-62
2021/06/20 16:52:35;;;;;;;4.28;3.03;;;30.30;79.30;;;;;;12117753;27;20058;-64
2021/06/20 16:58:23;;;;;;;7.55;2.40;;;29.80;79.40;;;;;;12156449;27;20054;-62
2021/06/20 17:04:11;;;;;;;8.18;2.65;;;29.10;84.00;;;;;;12155848;27;20130;-62
2021/06/20 17:09:58;;;;;;;5.28;2.80;;;28.50;86.30;;;;;;12155366;27;20051;-62
2021/06/20 17:15:45;;;;;;;6.47;3.63;;;28.10;89.80;;;;;;12156002;27;20052;-62
2021/06/20 17:21:33;;;;;;;5.82;3.10;;;27.40;94.10;;;;;;12156072;27;20039;-61
2021/06/20 17:34:02;;;;;;;5.85;3.60;;;26.20;97.20;;;;;;12155446;27;20055;-62
2021/06/20 17:39:50;;;;;;;6.72;4.25;;;25.80;99.30;;;;;;12155782;27;20039;-61
2021/06/20 17:45:38;;;;;;;5.68;3.60;;;25.50;99.90;;;;;;12155731;27;22877;-61
2021/06/20 17:51:24;;;;;;;4.07;3.08;;;25.30;99.90;;;;;;12155618;27;20080;-62
2021/06/20 17:57:13;;;;;;;7.50;4.05;;;25.30;99.90;;;;;;12156284;27;20428;-61
2021/06/20 18:03:00;;;;;;;5.68;3.80;;;25.30;99.90;;;;;;12154673;27;20051;-61
2021/06/20 18:08:46;;;;;;;3.92;3.10;;;25.20;99.90;;;;;;12164788;27;20046;-61
2021/06/20 18:14:35;;;;;;;12.65;6.15;;;25.10;99.90;;;;;;12154167;27;20047;-61
2021/06/20 18:20:22;;;;;;;4.32;3.47;;;25.00;99.90;;;;;;12164287;27;20439;-62
2021/06/20 18:26:09;;;;;;;5.05;3.15;;;24.90;99.90;;;;;;12152710;27;20507;-61
2021/06/20 18:31:57;;;;;;;4.35;3.17;;;24.90;99.90;;;;;;12153559;27;20547;-61
2021/06/20 18:37:44;;;;;;;6.53;3.85;;;24.80;99.90;;;;;;12164104;27;20048;-61
2021/06/20 18:43:31;;;;;;;7.35;3.38;;;24.80;99.90;;;;;;12163404;27;20403;-61
2021/06/20 18:49:19;;;;;;;8.93;3.50;;;24.70;99.90;;;;;;12163378;27;20040;-61
2021/06/20 18:55:08;;;;;;;5.05;3.72;;;24.70;99.90;;;;;;12162637;27;20507;-61
2021/06/20 19:00:55;;;;;;;6.43;3.70;;;24.70;99.90;;;;;;12162405;27;20055;-61
2021/06/20 19:06:43;;;;;;;6.10;3.58;;;24.70;99.90;;;;;;12161760;27;20044;-61
2021/06/20 19:12:31;;;;;;;5.55;3.90;;;24.60;99.90;;;;;;12161515;27;20423;-61
2021/06/20 19:18:17;;;;;;;11.77;7.32;;;24.60;99.90;;;;;;12161503;27;20044;-62
2021/06/20 19:24:07;;;;;;;6.30;3.90;;;24.50;99.90;;;;;;12163080;27;20043;-61
2021/06/20 19:29:54;;;;;;;6.82;3.83;;;24.50;99.90;;;;;;12125629;27;20048;-62
2021/06/20 19:35:43;;;;;;;6.75;3.85;;;24.40;99.90;;;;;;12123834;27;20039;-61
2021/06/20 19:41:32;;;;;;;4.70;3.90;;;24.30;99.90;;;;;;12147937;27;20039;-61
2021/06/20 19:47:19;;;;;;;6.05;4.10;;;24.30;99.90;;;;;;12160225;27;20059;-62
2021/06/20 19:53:06;;;;;;;9.93;4.03;;;24.30;99.90;;;;;;12161359;27;20531;-62
2021/06/20 19:58:54;;;;;;;6.65;4.10;;;24.20;99.90;;;;;;12162262;27;20047;-61
2021/06/20 20:04:41;;;;;;;5.75;3.65;;;24.20;99.90;;;;;;12162677;27;20067;-62
2021/06/20 20:10:30;;;;;;;7.32;4.65;;;24.20;99.90;;;;;;12162300;27;20426;-62
2021/06/20 20:16:20;;;;;;;8.55;6.30;;;24.10;99.90;;;;;;12143906;27;20048;-62
2021/06/20 20:22:07;;;;;;;8.85;4.50;;;24.10;99.90;;;;;;12161299;27;20138;-62
2021/06/20 20:27:55;;;;;;;7.90;4.57;;;24.00;99.90;;;;;;12137523;27;21628;-62
2021/06/20 20:33:43;;;;;;;7.00;4.88;;;23.80;99.90;;;;;;12123375;27;20472;-64
2021/06/20 20:39:30;;;;;;;7.35;4.85;;;23.80;99.90;;;;;;12122624;27;20051;-61
2021/06/20 20:45:17;;;;;;;8.13;4.65;;;23.70;99.90;;;;;;12121503;27;20039;-62
2021/06/20 20:51:06;;;;;;;8.30;4.72;;;23.70;99.90;;;;;;12124412;27;20047;-61
2021/06/20 20:56:53;;;;;;;8.65;4.75;;;23.70;99.90;;;;;;12118873;27;20055;-61
2021/06/20 21:02:40;;;;;;;6.47;5.00;;;23.60;99.90;;;;;;12119704;27;20048;-62
2021/06/20 21:08:28;;;;;;;11.32;5.07;;;23.60;99.90;;;;;;12120767;27;20058;-62
2021/06/20 21:14:15;;;;;;;6.13;4.93;;;23.50;99.90;;;;;;12121273;27;20050;-62
2021/06/20 21:20:02;;;;;;;9.95;5.07;;;23.50;99.90;;;;;;12123548;27;20613;-61
2021/06/20 21:25:50;;;;;;;8.05;4.70;;;23.40;99.90;;;;;;12123006;27;20055;-62
2021/06/20 21:31:38;;;;;;;7.85;4.55;;;23.40;99.90;;;;;;12118937;27;20047;-62
2021/06/20 21:37:27;;;;;;;7.97;4.93;;;23.30;99.90;;;;;;12118844;27;20523;-62
2021/06/20 21:43:15;;;;;;;11.40;4.72;;;23.30;99.90;;;;;;12122695;27;20048;-62
2021/06/20 21:49:02;;;;;;;10.10;5.07;;;23.30;99.90;;;;;;12121165;27;20131;-62
2021/06/20 21:54:56;;;;;;;7.22;4.68;;;23.20;99.90;;;;;;12137940;27;20048;-60
2021/06/20 22:00:45;;;;;;;7.00;5.00;;;23.30;99.90;;;;;;12117637;27;20595;-60
2021/06/20 22:06:32;;;;;;;6.78;4.95;;;23.30;99.90;;;;;;12092860;27;20051;-61
2021/06/20 22:12:19;;;;;;;7.82;5.43;;;23.30;99.90;;;;;;12120533;27;20070;-58
2021/06/20 22:18:10;;;;;;;5.65;4.95;;;23.30;99.90;;;;;;12117208;27;20044;-60
2021/06/20 22:23:57;;;;;;;7.32;5.47;;;23.20;99.90;;;;;;12116844;27;20093;-59
2021/06/20 22:29:44;;;;;;;9.82;5.03;;;23.20;99.90;;;;;;12117380;27;20047;-60
2021/06/20 22:35:33;;;;;;;9.07;4.75;;;23.10;99.90;;;;;;12118473;27;20043;-60
2021/06/20 22:41:20;;;;;;;7.80;5.18;;;23.10;99.90;;;;;;12117614;27;20052;-60
2021/06/20 22:47:07;;;;;;;9.50;5.40;;;23.20;99.90;;;;;;12122075;27;20435;-60
2021/06/20 22:52:57;;;;;;;5.57;5.07;;;23.20;99.90;;;;;;12123593;27;20055;-60
2021/06/20 22:58:44;;;;;;;11.75;5.40;;;23.30;99.90;;;;;;12125699;27;20048;-60
2021/06/20 23:04:31;;;;;;;8.32;4.80;;;23.40;99.90;;;;;;12126231;27;20058;-59
2021/06/20 23:10:19;;;;;;;7.63;5.22;;;23.40;99.90;;;;;;12123107;27;20082;-60
2021/06/20 23:16:06;;;;;;;5.70;5.07;;;23.40;99.90;;;;;;12128411;27;20054;-61
2021/06/20 23:21:54;;;;;;;8.23;5.03;;;23.40;99.90;;;;;;12123853;27;20055;-60
2021/06/20 23:27:42;;;;;;;8.20;5.55;;;23.40;99.90;;;;;;12122186;27;20051;-60
